createdAt,value
2017-07-21T00:00:05.951Z,81.50
2017-07-21T00:02:32.343Z,80.60
2017-07-21T00:04:58.748Z,80.70
2017-07-21T00:07:25.138Z,79.00
2017-07-21T00:09:52.331Z,80.00
2017-07-21T00:12:18.722Z,79.90
2017-07-21T00:14:45.938Z,79.30
2017-07-21T00:17:12.307Z,79.30
2017-07-21T00:19:39.422Z,80.10
2017-07-21T00:22:05.856Z,79.90
2017-07-21T00:24:34.296Z,80.60
2017-07-21T00:27:00.796Z,80.00
2017-07-21T00:29:27.915Z,80.10
2017-07-21T00:31:54.284Z,80.10
2017-07-21T00:34:21.505Z,80.00
2017-07-21T00:36:47.866Z,80.00
2017-07-21T00:39:14.307Z,80.30
2017-07-21T00:41:40.711Z,80.80
2017-07-21T00:44:07.223Z,83.40
2017-07-21T00:46:33.622Z,82.20
2017-07-21T00:49:00.030Z,82.70
2017-07-21T00:51:27.240Z,83.00
2017-07-21T00:53:53.655Z,83.00
2017-07-21T00:56:20.071Z,83.20
2017-07-21T00:58:46.455Z,83.70
2017-07-21T01:01:12.860Z,84.60
2017-07-21T01:03:39.305Z,85.50
2017-07-21T01:06:05.806Z,86.00
2017-07-21T01:08:32.208Z,87.00
2017-07-21T01:10:59.339Z,86.60
2017-07-21T01:13:25.836Z,86.60
2017-07-21T01:15:52.224Z,86.90
2017-07-21T01:18:19.358Z,88.30
2017-07-21T01:20:45.734Z,88.30
2017-07-21T01:23:12.195Z,88.30
2017-07-21T01:25:38.563Z,88.80
2017-07-21T01:28:04.971Z,88.00
2017-07-21T01:30:31.359Z,88.70
2017-07-21T01:32:58.851Z,88.20
2017-07-21T01:35:25.292Z,87.40
2017-07-21T01:37:51.667Z,87.50
2017-07-21T01:40:18.071Z,87.70
2017-07-21T01:42:44.498Z,86.60
2017-07-21T01:45:10.871Z,86.00
2017-07-21T01:47:37.326Z,86.00
2017-07-21T01:50:03.755Z,85.40
2017-07-21T01:52:30.143Z,85.20
2017-07-21T01:54:56.619Z,85.40
2017-07-21T01:57:23.071Z,85.70
2017-07-21T01:59:49.505Z,84.80
2017-07-21T02:02:15.915Z,85.00
2017-07-21T02:04:42.330Z,86.00
2017-07-21T02:07:08.743Z,85.70
2017-07-21T02:09:35.868Z,86.30
2017-07-21T02:12:02.267Z,86.30
2017-07-21T02:14:28.821Z,85.40
2017-07-21T02:16:55.243Z,85.10
2017-07-21T02:19:21.618Z,84.20
2017-07-21T02:21:47.978Z,83.60
2017-07-21T02:24:15.285Z,82.30
2017-07-21T02:26:41.679Z,82.20
2017-07-21T02:29:08.051Z,82.70
2017-07-21T02:31:34.442Z,83.30
2017-07-21T02:34:00.867Z,83.50
2017-07-21T02:36:27.243Z,82.60
2017-07-21T02:38:53.638Z,83.50
2017-07-21T02:41:20.019Z,83.80
2017-07-21T02:43:46.520Z,85.20
2017-07-21T02:46:12.918Z,84.90
2017-07-21T02:48:39.295Z,84.70
2017-07-21T02:51:06.446Z,85.90
2017-07-21T02:53:32.935Z,85.70
2017-07-21T02:55:59.291Z,86.30
2017-07-21T02:58:26.407Z,88.20
2017-07-21T03:00:52.922Z,87.10
2017-07-21T03:03:19.347Z,87.40
2017-07-21T03:05:45.740Z,87.60
2017-07-21T03:08:12.145Z,87.90
2017-07-21T03:10:38.555Z,87.70
2017-07-21T03:13:05.038Z,87.60
2017-07-21T03:15:31.446Z,88.20
2017-07-21T03:17:57.830Z,88.00
2017-07-21T03:20:24.243Z,88.00
2017-07-21T03:23:03.782Z,88.40
2017-07-21T03:25:30.983Z,86.90
2017-07-21T03:27:57.384Z,86.90
2017-07-21T03:30:23.767Z,87.00
2017-07-21T03:32:50.178Z,87.40
2017-07-21T03:35:16.575Z,88.30
2017-07-21T03:37:42.959Z,88.70
2017-07-21T03:40:09.367Z,89.10
2017-07-21T03:42:35.759Z,89.10
2017-07-21T03:45:02.960Z,89.80
2017-07-21T03:47:29.343Z,89.80
2017-07-21T03:49:56.443Z,90.00
2017-07-21T03:52:22.831Z,90.00
2017-07-21T03:54:50.039Z,90.20
2017-07-21T03:57:16.535Z,90.20
2017-07-21T03:59:42.933Z,90.50
2017-07-21T04:02:09.304Z,90.10
2017-07-21T04:04:36.784Z,90.00
2017-07-21T04:07:03.170Z,90.10
2017-07-21T04:09:29.584Z,90.10
2017-07-21T04:11:56.000Z,90.30
2017-07-21T04:14:22.378Z,90.40
2017-07-21T04:16:48.779Z,90.40
2017-07-21T04:19:15.147Z,90.80
2017-07-21T04:21:41.539Z,90.60
2017-07-21T04:24:08.015Z,90.70
2017-07-21T04:26:34.411Z,90.00
2017-07-21T04:29:00.798Z,87.50
2017-07-21T04:31:27.323Z,88.40
2017-07-21T04:33:53.767Z,87.20
2017-07-21T04:36:20.159Z,86.90
2017-07-21T04:38:47.303Z,87.10
2017-07-21T04:41:14.441Z,87.50
2017-07-21T04:43:40.922Z,87.50
2017-07-21T04:46:07.306Z,87.10
2017-07-21T04:48:33.797Z,87.90
2017-07-21T04:51:00.271Z,88.20
2017-07-21T04:53:26.764Z,87.60
2017-07-21T04:55:53.642Z,87.30
2017-07-21T04:58:20.810Z,85.30
2017-07-21T05:00:47.268Z,85.30
2017-07-21T05:03:14.742Z,83.20
2017-07-21T05:05:41.239Z,83.20
2017-07-21T05:08:08.374Z,84.10
2017-07-21T05:10:34.747Z,84.10
2017-07-21T05:13:01.206Z,84.20
2017-07-21T05:15:27.587Z,83.80
2017-07-21T05:17:54.752Z,84.00
2017-07-21T05:20:21.143Z,83.80
2017-07-21T05:22:47.535Z,85.20
2017-07-21T05:25:13.958Z,84.30
2017-07-21T05:27:40.339Z,84.00
2017-07-21T05:30:06.751Z,84.30
2017-07-21T05:32:33.213Z,84.30
2017-07-21T05:34:59.746Z,84.20
2017-07-21T05:37:26.127Z,84.10
2017-07-21T05:39:52.492Z,84.20
2017-07-21T05:42:19.075Z,84.60
2017-07-21T05:44:45.538Z,82.50
2017-07-21T05:47:11.912Z,83.50
2017-07-21T05:49:38.422Z,84.30
2017-07-21T05:52:04.867Z,81.70
2017-07-21T05:54:32.114Z,83.00
2017-07-21T05:56:58.487Z,83.00
2017-07-21T05:59:24.867Z,81.60
2017-07-21T06:01:51.312Z,82.70
2017-07-21T06:04:17.814Z,82.30
2017-07-21T06:06:44.423Z,79.30
2017-07-21T06:09:10.877Z,81.60
2017-07-21T06:11:37.303Z,80.30
2017-07-21T06:14:04.235Z,79.30
2017-07-21T06:16:30.938Z,79.40
2017-07-21T06:18:57.505Z,79.30
2017-07-21T06:21:24.648Z,78.60
2017-07-21T06:23:51.128Z,78.60
2017-07-21T06:26:17.548Z,76.40
2017-07-21T06:28:43.932Z,77.90
2017-07-21T06:31:10.330Z,77.10
2017-07-21T06:33:36.799Z,77.00
2017-07-21T06:36:03.192Z,77.40
2017-07-21T06:38:29.557Z,76.50
2017-07-21T06:40:55.955Z,74.20
2017-07-21T06:43:22.464Z,73.70
2017-07-21T06:45:48.919Z,73.20
2017-07-21T06:48:15.390Z,73.20
2017-07-21T06:50:41.847Z,74.90
2017-07-21T06:53:10.363Z,73.10
2017-07-21T06:55:36.888Z,72.90
2017-07-21T06:58:04.688Z,73.20
2017-07-21T07:00:31.129Z,74.50
2017-07-21T07:02:57.527Z,73.90
2017-07-21T07:05:24.319Z,74.70
2017-07-21T07:07:50.872Z,70.00
2017-07-21T07:10:17.441Z,67.70
2017-07-21T07:12:43.854Z,66.20
2017-07-21T07:15:11.070Z,76.30
2017-07-21T07:17:37.466Z,76.30
2017-07-21T07:20:03.924Z,75.90
2017-07-21T07:22:30.335Z,75.80
2017-07-21T07:24:56.755Z,75.80
2017-07-21T07:27:23.258Z,74.10
2017-07-21T07:29:50.379Z,75.40
2017-07-21T07:32:16.839Z,74.80
2017-07-21T07:34:43.449Z,74.70
2017-07-21T07:37:09.911Z,74.10
2017-07-21T07:39:37.050Z,74.40
2017-07-21T07:42:03.467Z,73.80
2017-07-21T07:44:29.997Z,73.00
2017-07-21T07:46:56.591Z,72.70
2017-07-21T07:49:23.970Z,70.30
2017-07-21T07:51:50.606Z,70.20
2017-07-21T07:54:17.196Z,69.40
2017-07-21T07:56:43.603Z,69.20
2017-07-21T07:59:10.023Z,69.50
2017-07-21T08:01:36.423Z,68.60
2017-07-21T08:04:02.997Z,67.90
2017-07-21T08:06:29.384Z,68.10
2017-07-21T08:08:55.783Z,67.70
2017-07-21T08:11:22.183Z,66.90
2017-07-21T08:13:48.763Z,67.70
2017-07-21T08:16:16.304Z,67.20
2017-07-21T08:18:43.693Z,66.50
2017-07-21T08:21:11.116Z,66.40
2017-07-21T08:23:37.678Z,67.90
2017-07-21T08:26:04.367Z,65.50
2017-07-21T08:28:30.783Z,64.50
2017-07-21T08:30:57.284Z,65.60
2017-07-21T08:33:23.983Z,63.80
2017-07-21T08:35:50.510Z,64.30
2017-07-21T08:38:16.928Z,61.40
2017-07-21T08:40:43.331Z,64.60
2017-07-21T08:43:09.800Z,63.50
2017-07-21T08:45:36.218Z,62.10
2017-07-21T08:48:02.624Z,61.50
2017-07-21T08:50:29.107Z,61.00
2017-07-21T08:52:55.721Z,61.70
2017-07-21T08:55:22.164Z,59.80
2017-07-21T08:57:48.595Z,60.40
2017-07-21T09:00:15.103Z,59.50
2017-07-21T09:02:41.527Z,59.70
2017-07-21T09:05:08.719Z,57.80
2017-07-21T09:07:35.096Z,57.80
2017-07-21T09:10:01.624Z,58.10
2017-07-21T09:12:28.039Z,62.00
2017-07-21T09:14:54.431Z,60.50
2017-07-21T09:17:21.070Z,57.90
2017-07-21T09:19:47.555Z,58.30
2017-07-21T09:22:14.047Z,57.90
2017-07-21T09:24:40.479Z,56.70
2017-07-21T09:27:06.849Z,55.40
2017-07-21T09:29:33.318Z,53.00
2017-07-21T09:31:59.694Z,54.40
2017-07-21T09:34:26.110Z,55.30
2017-07-21T09:36:52.527Z,54.20
2017-07-21T09:39:18.938Z,55.60
2017-07-21T09:41:46.645Z,52.90
2017-07-21T09:44:13.191Z,52.90
2017-07-21T09:46:39.979Z,52.80
2017-07-21T09:49:06.408Z,51.50
2017-07-21T09:51:40.343Z,50.30
2017-07-21T09:54:06.823Z,50.10
2017-07-21T09:56:33.195Z,51.50
2017-07-21T09:58:59.688Z,55.00
2017-07-21T10:01:26.072Z,54.40
2017-07-21T10:03:52.523Z,54.70
2017-07-21T10:06:19.002Z,54.50
2017-07-21T10:08:46.142Z,53.80
2017-07-21T10:11:12.508Z,53.70
2017-07-21T10:13:39.008Z,53.70
2017-07-21T10:16:05.375Z,52.50
2017-07-21T10:18:31.747Z,52.70
2017-07-21T10:20:58.147Z,50.80
2017-07-21T10:23:24.611Z,50.50
2017-07-21T10:25:51.003Z,51.70
2017-07-21T10:28:17.416Z,47.80
2017-07-21T10:30:43.833Z,47.00
2017-07-21T10:33:10.331Z,49.10
2017-07-21T10:35:36.751Z,50.60
2017-07-21T10:38:03.156Z,49.50
2017-07-21T10:40:30.323Z,48.50
2017-07-21T10:42:57.763Z,48.50
2017-07-21T10:45:25.134Z,49.30
2017-07-21T10:47:51.540Z,49.10
2017-07-21T10:50:17.920Z,49.90
2017-07-21T10:52:44.311Z,48.40
2017-07-21T10:55:10.786Z,49.70
2017-07-21T10:57:37.176Z,51.80
2017-07-21T11:00:03.675Z,50.30
2017-07-21T11:02:30.329Z,49.70
2017-07-21T11:04:56.791Z,51.50
2017-07-21T11:07:23.428Z,51.30
2017-07-21T11:09:49.858Z,49.10
2017-07-21T11:12:16.255Z,47.70
2017-07-21T11:14:42.683Z,50.40
2017-07-21T11:17:09.085Z,48.90
2017-07-21T11:19:35.463Z,51.80
2017-07-21T11:22:01.917Z,48.80
2017-07-21T11:24:28.346Z,47.90
2017-07-21T11:26:54.856Z,42.90
2017-07-21T11:29:28.262Z,47.20
2017-07-21T11:31:54.671Z,46.00
2017-07-21T11:34:21.086Z,45.60
2017-07-21T11:36:47.494Z,45.10
2017-07-21T11:39:14.672Z,42.30
2017-07-21T11:41:41.369Z,42.30
2017-07-21T11:44:07.916Z,41.90
2017-07-21T11:46:34.335Z,44.10
2017-07-21T11:49:00.744Z,44.20
2017-07-21T11:51:27.156Z,44.00
2017-07-21T11:53:53.541Z,45.20
2017-07-21T11:56:19.960Z,44.20
2017-07-21T11:58:46.460Z,42.00
2017-07-21T12:01:12.866Z,43.90
2017-07-21T12:03:39.266Z,43.60
2017-07-21T12:06:05.678Z,45.00
2017-07-21T12:08:32.440Z,40.50
2017-07-21T12:10:59.155Z,39.30
2017-07-21T12:13:25.808Z,39.00
2017-07-21T12:15:52.301Z,39.60
2017-07-21T12:18:18.839Z,38.90
2017-07-21T12:20:45.275Z,38.80
2017-07-21T12:23:11.848Z,38.60
2017-07-21T12:25:39.084Z,38.10
2017-07-21T12:28:05.497Z,38.10
2017-07-21T12:30:32.056Z,35.50
2017-07-21T12:32:58.538Z,35.60
2017-07-21T12:35:25.154Z,36.50
2017-07-21T12:37:52.443Z,37.00
2017-07-21T12:40:18.928Z,37.00
2017-07-21T12:42:45.400Z,38.90
2017-07-21T12:45:11.892Z,40.40
2017-07-21T12:47:38.296Z,37.80
2017-07-21T12:50:04.920Z,37.80
2017-07-21T12:52:31.716Z,39.30
2017-07-21T12:54:59.066Z,38.60
2017-07-21T12:57:25.552Z,38.60
2017-07-21T12:59:51.955Z,38.50
2017-07-21T13:02:18.355Z,38.80
2017-07-21T13:04:44.734Z,35.20
2017-07-21T13:07:11.603Z,35.10
2017-07-21T13:09:38.126Z,36.50
2017-07-21T13:12:04.721Z,35.70
2017-07-21T13:14:32.102Z,39.20
2017-07-21T13:16:58.499Z,39.20
2017-07-21T13:19:25.110Z,39.70
2017-07-21T13:21:51.807Z,36.60
2017-07-21T13:24:18.359Z,35.60
2017-07-21T13:26:44.891Z,37.60
2017-07-21T13:29:11.427Z,34.90
2017-07-21T13:31:37.916Z,33.50
2017-07-21T13:34:04.655Z,34.20
2017-07-21T13:36:31.172Z,32.80
2017-07-21T13:38:58.468Z,34.90
2017-07-21T13:41:25.099Z,34.30
2017-07-21T13:43:51.719Z,32.90
2017-07-21T13:46:18.895Z,33.00
2017-07-21T13:48:45.464Z,33.00
2017-07-21T13:51:12.411Z,37.00
2017-07-21T13:53:38.939Z,34.50
2017-07-21T13:56:05.443Z,32.10
2017-07-21T13:58:31.967Z,33.00
2017-07-21T14:00:58.453Z,34.20
2017-07-21T14:03:24.850Z,34.20
2017-07-21T14:05:51.561Z,35.90
2017-07-21T14:08:18.827Z,36.50
2017-07-21T14:10:45.216Z,36.30
2017-07-21T14:13:12.080Z,35.10
2017-07-21T14:15:38.675Z,34.20
2017-07-21T14:18:05.209Z,34.60
2017-07-21T14:20:31.655Z,33.40
2017-07-21T14:22:58.055Z,34.20
2017-07-21T14:25:24.522Z,34.50
2017-07-21T14:27:50.923Z,34.20
2017-07-21T14:30:17.338Z,33.90
2017-07-21T14:32:43.726Z,34.70
2017-07-21T14:35:10.243Z,31.90
2017-07-21T14:37:36.619Z,33.20
2017-07-21T14:40:03.005Z,32.60
2017-07-21T14:42:29.410Z,33.10
2017-07-21T14:44:55.836Z,35.10
2017-07-21T14:47:22.235Z,34.30
2017-07-21T14:49:48.640Z,34.70
2017-07-21T14:52:15.059Z,33.30
2017-07-21T14:54:41.460Z,33.40
2017-07-21T14:57:08.622Z,35.20
2017-07-21T14:59:35.040Z,35.20
2017-07-21T15:02:02.155Z,34.30
2017-07-21T15:04:28.550Z,34.30
2017-07-21T15:06:54.943Z,36.20
2017-07-21T15:09:21.339Z,35.30
2017-07-21T15:11:48.008Z,35.30
2017-07-21T15:14:14.547Z,34.70
2017-07-21T15:16:40.932Z,35.90
2017-07-21T15:19:07.319Z,37.10
2017-07-21T15:21:34.462Z,36.50
2017-07-21T15:24:00.854Z,36.10
2017-07-21T15:26:27.282Z,36.70
2017-07-21T15:28:53.678Z,37.70
2017-07-21T15:31:20.815Z,37.00
2017-07-21T15:33:47.235Z,36.90
2017-07-21T15:36:13.775Z,35.80
2017-07-21T15:38:40.547Z,36.10
2017-07-21T15:41:06.967Z,35.90
2017-07-21T15:43:34.132Z,35.00
2017-07-21T15:46:00.854Z,35.00
2017-07-21T15:48:27.411Z,36.30
2017-07-21T15:50:53.979Z,37.10
2017-07-21T15:53:20.581Z,38.50
2017-07-21T15:55:46.986Z,38.90
2017-07-21T15:58:14.261Z,39.40
2017-07-21T16:00:40.672Z,39.30
2017-07-21T16:03:07.867Z,38.40
2017-07-21T16:05:34.448Z,38.40
2017-07-21T16:08:00.918Z,37.50
2017-07-21T16:10:27.415Z,38.90
2017-07-21T16:12:53.802Z,40.30
2017-07-21T16:15:20.475Z,40.10
2017-07-21T16:17:46.907Z,41.40
2017-07-21T16:20:13.560Z,40.20
2017-07-21T16:22:40.710Z,41.10
2017-07-21T16:25:07.111Z,41.00
2017-07-21T16:27:33.519Z,41.60
2017-07-21T16:29:59.899Z,40.70
2017-07-21T16:32:26.322Z,42.20
2017-07-21T16:34:52.715Z,44.00
2017-07-21T16:37:19.163Z,40.80
2017-07-21T16:39:45.700Z,44.10
2017-07-21T16:42:12.351Z,42.30
2017-07-21T16:44:38.807Z,43.60
2017-07-21T16:47:05.987Z,43.70
2017-07-21T16:49:32.390Z,43.70
2017-07-21T16:51:58.778Z,43.70
2017-07-21T16:54:25.242Z,46.30
2017-07-21T16:56:51.851Z,43.80
2017-07-21T16:59:18.599Z,45.40
2017-07-21T17:01:45.131Z,46.30
2017-07-21T17:04:11.535Z,47.50
2017-07-21T17:06:38.066Z,48.50
2017-07-21T17:09:04.448Z,49.20
2017-07-21T17:11:31.527Z,49.80
2017-07-21T17:13:58.076Z,47.50
2017-07-21T17:16:25.209Z,50.00
2017-07-21T17:18:51.595Z,49.90
2017-07-21T17:21:17.990Z,49.80
2017-07-21T17:23:45.129Z,50.20
2017-07-21T17:26:11.532Z,50.20
2017-07-21T17:28:37.995Z,49.00
2017-07-21T17:31:04.517Z,51.20
2017-07-21T17:33:30.928Z,51.40
2017-07-21T17:35:58.260Z,51.30
2017-07-21T17:38:24.982Z,50.80
2017-07-21T17:40:52.262Z,52.30
2017-07-21T17:43:18.732Z,51.70
2017-07-21T17:45:45.191Z,52.60
2017-07-21T17:48:11.743Z,52.90
2017-07-21T17:50:38.155Z,52.80
2017-07-21T17:53:04.594Z,53.20
2017-07-21T17:55:31.011Z,53.80
2017-07-21T17:57:57.429Z,53.40
2017-07-21T18:00:23.823Z,54.10
2017-07-21T18:02:50.255Z,54.60
2017-07-21T18:05:16.927Z,54.00
2017-07-21T18:07:43.387Z,54.10
2017-07-21T18:10:09.787Z,54.30
2017-07-21T18:12:36.656Z,54.80
2017-07-21T18:15:03.190Z,55.40
2017-07-21T18:17:29.658Z,55.50
2017-07-21T18:19:56.071Z,55.60
2017-07-21T18:22:23.189Z,56.20
2017-07-21T18:24:49.652Z,56.20
2017-07-21T18:27:17.756Z,56.80
2017-07-21T18:29:44.970Z,56.70
2017-07-21T18:32:11.387Z,56.30
2017-07-21T18:34:38.764Z,56.20
2017-07-21T18:37:05.174Z,56.50
2017-07-21T18:39:31.554Z,56.80
2017-07-21T18:41:57.975Z,57.30
2017-07-21T18:44:24.484Z,57.70
2017-07-21T18:46:50.855Z,58.20
2017-07-21T18:49:17.231Z,58.40
2017-07-21T18:51:43.756Z,58.30
2017-07-21T18:54:10.163Z,58.20
2017-07-21T18:56:36.739Z,58.90
2017-07-21T18:59:03.156Z,59.20
2017-07-21T19:01:29.556Z,59.20
2017-07-21T19:03:56.228Z,59.60
2017-07-21T19:06:22.768Z,59.70
2017-07-21T19:08:49.327Z,59.40
2017-07-21T19:11:16.479Z,59.80
2017-07-21T19:13:43.665Z,59.60
2017-07-21T19:16:10.082Z,59.60
2017-07-21T19:18:36.451Z,59.20
2017-07-21T19:21:03.026Z,58.80
2017-07-21T19:23:29.534Z,59.70
2017-07-21T19:25:55.904Z,60.00
2017-07-21T19:28:23.234Z,59.90
2017-07-21T19:30:49.720Z,59.80
2017-07-21T19:33:16.327Z,59.90
2017-07-21T19:35:42.822Z,59.90
2017-07-21T19:38:09.263Z,59.00
2017-07-21T19:40:35.687Z,57.60
2017-07-21T19:43:02.095Z,56.60
2017-07-21T19:45:28.458Z,57.90
2017-07-21T19:47:54.858Z,59.50
2017-07-21T19:50:21.246Z,59.30
2017-07-21T19:52:48.415Z,58.80
2017-07-21T19:55:14.942Z,58.30
2017-07-21T19:57:41.332Z,57.70
2017-07-21T20:00:08.678Z,58.50
2017-07-21T20:02:35.100Z,57.80
2017-07-21T20:05:02.423Z,57.40
2017-07-21T20:07:28.815Z,58.80
2017-07-21T20:09:55.224Z,58.80
2017-07-21T20:12:21.791Z,59.70
2017-07-21T20:14:48.200Z,59.70
2017-07-21T20:17:14.559Z,60.60
2017-07-21T20:19:41.015Z,61.20
2017-07-21T20:22:07.422Z,61.80
2017-07-21T20:24:35.869Z,62.10
2017-07-21T20:27:02.308Z,63.20
2017-07-21T20:29:28.771Z,63.10
2017-07-21T20:31:55.899Z,62.90
2017-07-21T20:34:22.334Z,62.90
2017-07-21T20:36:48.750Z,62.80
2017-07-21T20:39:15.110Z,63.10
2017-07-21T20:41:41.523Z,63.00
2017-07-21T20:44:07.938Z,62.80
2017-07-21T20:46:34.349Z,63.50
2017-07-21T20:49:00.704Z,64.30
2017-07-21T20:51:27.151Z,64.60
2017-07-21T20:53:53.605Z,64.90
2017-07-21T20:56:19.991Z,64.80
2017-07-21T20:58:46.388Z,64.70
2017-07-21T21:01:13.524Z,66.20
2017-07-21T21:03:40.875Z,65.70
2017-07-21T21:06:07.293Z,65.70
2017-07-21T21:08:33.809Z,65.60
2017-07-21T21:11:00.404Z,65.40
2017-07-21T21:13:26.824Z,66.40
2017-07-21T21:15:53.950Z,65.90
2017-07-21T21:18:20.457Z,65.80
2017-07-21T21:20:46.839Z,65.60
2017-07-21T21:23:13.964Z,65.60
2017-07-21T21:25:40.403Z,65.50
2017-07-21T21:28:13.606Z,66.40
2017-07-21T21:30:39.974Z,66.10
2017-07-21T21:33:06.399Z,66.00
2017-07-21T21:35:32.780Z,66.10
2017-07-21T21:37:59.194Z,66.60
2017-07-21T21:40:25.576Z,66.70
2017-07-21T21:42:52.739Z,68.20
2017-07-21T21:45:19.870Z,67.00
2017-07-21T21:47:46.275Z,66.90
2017-07-21T21:50:13.295Z,67.10
2017-07-21T21:52:39.696Z,67.50
2017-07-21T21:55:06.847Z,68.00
2017-07-21T21:57:33.976Z,68.30
2017-07-21T22:00:00.354Z,68.30
2017-07-21T22:02:26.809Z,68.10
2017-07-21T22:04:53.280Z,68.60
2017-07-21T22:07:19.839Z,69.50
2017-07-21T22:09:46.258Z,69.30
2017-07-21T22:12:12.659Z,69.00
2017-07-21T22:14:39.156Z,69.00
2017-07-21T22:17:05.527Z,69.30
2017-07-21T22:19:32.429Z,68.60
2017-07-21T22:21:58.846Z,68.50
2017-07-21T22:24:25.261Z,68.30
2017-07-21T22:26:54.328Z,68.90
2017-07-21T22:29:21.755Z,68.80
2017-07-21T22:31:48.118Z,69.30
2017-07-21T22:34:14.544Z,68.60
2017-07-21T22:36:41.960Z,68.10
2017-07-21T22:39:08.335Z,67.90
2017-07-21T22:41:34.775Z,67.50
2017-07-21T22:44:01.304Z,67.30
2017-07-21T22:46:27.675Z,67.50
2017-07-21T22:48:54.068Z,67.40
2017-07-21T22:51:20.515Z,67.40
2017-07-21T22:53:46.943Z,68.10
2017-07-21T22:56:13.396Z,67.30
2017-07-21T22:58:40.643Z,67.90
2017-07-21T23:01:07.794Z,68.80
2017-07-21T23:03:34.175Z,68.70
2017-07-21T23:06:01.342Z,69.30
2017-07-21T23:08:27.779Z,69.80
2017-07-21T23:10:54.134Z,69.50
2017-07-21T23:13:20.623Z,69.20
2017-07-21T23:15:47.030Z,70.00
2017-07-21T23:18:13.434Z,70.10
2017-07-21T23:20:46.988Z,69.90
2017-07-21T23:23:13.431Z,70.60
2017-07-21T23:25:39.899Z,71.20
2017-07-21T23:28:06.312Z,71.50
2017-07-21T23:30:32.697Z,72.00
2017-07-21T23:32:59.100Z,73.40
2017-07-21T23:35:25.515Z,73.30
2017-07-21T23:37:51.903Z,74.00
2017-07-21T23:40:18.336Z,74.10
2017-07-21T23:42:44.763Z,74.00
2017-07-21T23:45:11.159Z,74.30
2017-07-21T23:47:37.695Z,74.90
2017-07-21T23:50:04.095Z,74.80
2017-07-21T23:52:30.520Z,75.80
2017-07-21T23:54:56.975Z,76.80
2017-07-21T23:57:23.356Z,75.40
2017-07-21T23:59:49.741Z,75.20
